Angeles - Pampanga, Philippines

3:11 AM PHT on August 24, 2014 (GMT +0800)
Ninoy Aquino International | Change Station
CLOSE
Current Station
Airport
Location: Manila,
Elevation: 49 ft
Nearby Weather Stations

Elev 49 ft 14.51 °N, 121.00 °E | Updated 11 minutes ago

Light Rain Showers
Light Showers Rain
81 °F
Feels Like 88 °F
N
2
Wind Variable Wind from Variable

Today
High -- | Low -- °F
--% Chance of Precip.
Yesterday
High -- | Low -- °F
Precip. -- in
5:44 AM 6:15 PM
Waning Crescent, 3% visible
Pressure 29.77 in
Visibility 6.2 miles
Clouds Scattered Clouds 2000 ft
Overcast 9000 ft
Heat Index 88 °F
Dew Point 79 °F
Humidity 94%
Rainfall 0.00 in
Snow Depth Not available.
UV 0 out of 12
Pollen Not available.
Air Quality Not available.
Flu Activity Not available.
METAR RPLL 231900Z VRB02KT 9999 -SHRA SCT020 OVC090 27/26 Q1008 TEMPO 7000 -RA RMK A2977

More Conditions Fewer Conditions

Pressure 29.77 in
Visibility 6.2 miles
Clouds Scattered Clouds 2000 ft
Overcast 9000 ft
Heat Index 88 °F
Dew Point 79 °F
Humidity 94%
Rainfall 0.00 in
Snow Depth Not available.
UV 0 out of 12
Pollen Not available.
Air Quality Not available.
Flu Activity Not available.
METAR RPLL 231900Z VRB02KT 9999 -SHRA SCT020 OVC090 27/26 Q1008 TEMPO 7000 -RA RMK A2977

More Conditions Fewer Conditions

10-Day Weather Forecast

Almanac

Astronomy

Aug. 24, 2014 Rise Set
Actual Time 5:44 AM PHT 6:15 PM PHT
Civil Twilight 5:22 AM PHT 6:37 PM PHT
Nautical Twilight 4:56 AM PHT 7:03 PM PHT
Astronomical Twilight 4:30 AM PHT 7:29 PM PHT
Moon 4:26 AM PHT (8/24) 5:14 PM PHT (8/24)
Length of Visible Light 13h 15m
Length of Day
12h 31m
Tomorrow will be 0m 47s shorter.
Waning Crescent, 3% of the Moon is Illuminated
Aug 23
Waning Crescent
Aug 25
New
Sep 2
First Quarter
Sep 8
Full
Sep 15
Last Quarter

Yesterday's Extremes

Country Highs Country Lows

Community

WunderPhotos

Upload Photos

1,746,585 photos uploaded!

WunderBlogs® & News

Nearby

Snow Depth

Not available.

Earthquake Activity

City Distance Mag. Time & Date
No recent earthquake activity has been reported nearby.
Minimum magnitude displayed is 2.5.

Coastal Water Temperatures

Place Temperature
No Stations Reporting

Nearby Weather Stations